createdAt,value
2023-05-01T00:02:25.707Z,101398.39
2023-05-01T00:04:53.755Z,101392.84
2023-05-01T00:07:22.254Z,101389.17
2023-05-01T00:09:50.351Z,101393.06
2023-05-01T00:12:18.634Z,101391.92
2023-05-01T00:14:46.584Z,101391.13
2023-05-01T00:17:14.605Z,101385.61
2023-05-01T00:19:42.740Z,101384.23
2023-05-01T00:22:10.690Z,101384.95
2023-05-01T00:24:38.738Z,101383.05
2023-05-01T00:27:07.020Z,101381.39
2023-05-01T00:29:34.911Z,101382.17
2023-05-01T00:32:02.843Z,101381.59
2023-05-01T00:34:31.508Z,101385.45
2023-05-01T00:37:00.141Z,101384.37
2023-05-01T00:39:28.073Z,101376.95
2023-05-01T00:41:57.107Z,101382.60
2023-05-01T00:44:25.124Z,101377.66
2023-05-01T00:46:53.065Z,101383.58
2023-05-01T00:49:22.077Z,101380.45
2023-05-01T00:51:54.292Z,101380.12
2023-05-01T00:54:24.445Z,101388.45
2023-05-01T00:56:53.789Z,101384.98
2023-05-01T00:59:22.256Z,101374.49
2023-05-01T01:01:50.326Z,101370.89
2023-05-01T01:04:18.300Z,101371.91
2023-05-01T01:07:00.047Z,101378.64
2023-05-01T01:09:37.324Z,101371.81
2023-05-01T01:12:21.872Z,101367.85
2023-05-01T01:14:59.617Z,101368.02
2023-05-01T01:17:43.611Z,101362.20
2023-05-01T01:20:20.220Z,101358.63
2023-05-01T01:23:00.247Z,101351.38
2023-05-01T01:25:56.045Z,101356.21
2023-05-01T01:28:54.684Z,101361.25
2023-05-01T01:31:55.750Z,101350.20
2023-05-01T01:34:36.983Z,101350.59
2023-05-01T01:37:25.795Z,101351.53
2023-05-01T01:40:05.456Z,101344.21
2023-05-01T01:42:39.962Z,101345.98
2023-05-01T01:45:20.638Z,101359.25
2023-05-01T01:47:49.511Z,101355.55
2023-05-01T01:50:19.971Z,101352.41
2023-05-01T01:52:51.139Z,101355.75
2023-05-01T01:55:22.980Z,101362.00
2023-05-01T01:57:52.884Z,101368.70
2023-05-01T02:00:21.963Z,101357.72
2023-05-01T02:02:50.734Z,101361.09
2023-05-01T02:05:20.871Z,101357.91
2023-05-01T02:07:51.423Z,101357.09
2023-05-01T02:10:21.191Z,101346.59
2023-05-01T02:12:52.375Z,101356.21
2023-05-01T02:15:21.988Z,101356.67
2023-05-01T02:17:52.794Z,101352.71
2023-05-01T02:20:22.599Z,101359.71
2023-05-01T02:22:54.542Z,101358.92
2023-05-01T02:25:22.580Z,101361.02
2023-05-01T02:28:08.863Z,101364.35
2023-05-01T02:30:37.277Z,101362.98
2023-05-01T02:33:05.581Z,101367.10
2023-05-01T02:35:33.424Z,101360.27
2023-05-01T02:38:01.357Z,101366.97
2023-05-01T02:40:29.979Z,101368.73
2023-05-01T02:42:59.142Z,101364.29
2023-05-01T02:45:28.590Z,101359.22
2023-05-01T02:48:01.163Z,101364.65
2023-05-01T02:50:29.900Z,101360.20
2023-05-01T02:52:58.105Z,101361.48
2023-05-01T02:55:26.561Z,101357.03
2023-05-01T02:57:54.500Z,101348.10
2023-05-01T03:00:22.549Z,101356.38
2023-05-01T03:02:50.550Z,101356.38
2023-05-01T03:05:18.565Z,101349.09
2023-05-01T03:07:46.880Z,101351.63
2023-05-01T03:10:14.944Z,101348.46
2023-05-01T03:12:43.231Z,101343.69
2023-05-01T03:15:13.385Z,101341.49
2023-05-01T03:17:41.325Z,101341.66
2023-05-01T03:20:10.875Z,101339.60
2023-05-01T03:22:38.865Z,101334.83
2023-05-01T03:25:07.185Z,101336.10
2023-05-01T03:27:35.133Z,101344.70
2023-05-01T03:30:03.052Z,101342.12
2023-05-01T03:32:31.152Z,101338.20
2023-05-01T03:34:59.048Z,101339.77
2023-05-01T03:37:27.412Z,101331.16
2023-05-01T03:39:55.673Z,101332.44
2023-05-01T03:42:23.834Z,101330.54
2023-05-01T03:44:51.866Z,101327.20
2023-05-01T03:47:20.692Z,101333.62
2023-05-01T03:49:48.997Z,101333.95
2023-05-01T03:52:17.795Z,101341.10
2023-05-01T03:54:46.030Z,101340.52
2023-05-01T03:57:13.920Z,101346.23
2023-05-01T03:59:41.899Z,101338.75
2023-05-01T04:02:09.932Z,101343.39
2023-05-01T04:04:37.975Z,101339.73
2023-05-01T04:07:06.927Z,101341.01
2023-05-01T04:09:34.841Z,101339.41
2023-05-01T04:12:04.019Z,101338.78
2023-05-01T04:14:32.346Z,101335.77
2023-05-01T04:17:00.749Z,101343.27
2023-05-01T04:19:29.306Z,101347.58
2023-05-01T04:21:57.183Z,101345.16
2023-05-01T04:24:25.143Z,101341.98
2023-05-01T04:26:53.124Z,101345.65
2023-05-01T04:29:21.099Z,101344.57
2023-05-01T04:31:49.090Z,101341.01
2023-05-01T04:34:17.540Z,101346.44
2023-05-01T04:36:45.710Z,101347.41
2023-05-01T04:39:13.670Z,101345.81
2023-05-01T04:41:41.760Z,101334.04
2023-05-01T04:44:09.650Z,101343.42
2023-05-01T04:46:37.669Z,101347.09
2023-05-01T04:49:05.622Z,101343.88
2023-05-01T04:51:33.594Z,101357.09
2023-05-01T04:54:01.478Z,101346.76
2023-05-01T04:56:29.417Z,101362.20
2023-05-01T04:58:57.487Z,101355.69
2023-05-01T05:01:25.605Z,101351.24
2023-05-01T05:03:53.707Z,101355.98
2023-05-01T05:06:22.324Z,101361.70
2023-05-01T05:08:53.301Z,101362.98
2023-05-01T05:11:21.336Z,101357.59
2023-05-01T05:13:49.355Z,101363.14
2023-05-01T05:16:17.756Z,101361.05
2023-05-01T05:18:45.606Z,101372.53
2023-05-01T05:21:13.465Z,101369.65
2023-05-01T05:23:42.235Z,101372.37
2023-05-01T05:26:10.137Z,101380.80
2023-05-01T05:28:37.956Z,101377.14
2023-05-01T05:31:05.956Z,101380.80
2023-05-01T05:33:34.032Z,101376.65
2023-05-01T05:36:01.997Z,101379.04
2023-05-01T05:38:29.861Z,101380.64
2023-05-01T05:40:57.732Z,101373.31
2023-05-01T05:43:27.347Z,101381.78
2023-05-01T05:46:00.303Z,101383.68
2023-05-01T05:48:29.296Z,101386.52
2023-05-01T05:50:57.972Z,101381.62
2023-05-01T05:53:26.969Z,101384.30
2023-05-01T05:55:54.882Z,101383.05
2023-05-01T05:58:23.836Z,101384.62
2023-05-01T06:00:52.022Z,101387.02
2023-05-01T06:03:20.686Z,101390.19
2023-05-01T06:05:49.664Z,101383.98
2023-05-01T06:08:17.829Z,101376.48
2023-05-01T06:10:45.836Z,101380.48
2023-05-01T06:13:15.107Z,101388.59
2023-05-01T06:15:43.285Z,101384.43
2023-05-01T06:18:11.276Z,101391.89
2023-05-01T06:20:40.196Z,101389.99
2023-05-01T06:23:09.851Z,101393.00
2023-05-01T06:25:38.745Z,101387.41
2023-05-01T06:28:06.905Z,101382.80
2023-05-01T06:30:34.796Z,101396.63
2023-05-01T06:33:02.854Z,101391.69
2023-05-01T06:35:30.790Z,101391.04
2023-05-01T06:37:58.812Z,101392.64
2023-05-01T06:40:26.723Z,101385.45
2023-05-01T06:42:54.662Z,101390.84
2023-05-01T06:45:22.777Z,101394.05
2023-05-01T06:47:50.852Z,101401.53
2023-05-01T06:50:19.004Z,101399.44
2023-05-01T06:52:46.937Z,101403.13
2023-05-01T06:55:14.891Z,101395.65
2023-05-01T06:57:43.010Z,101395.48
2023-05-01T07:00:12.217Z,101399.93
2023-05-01T07:02:42.098Z,101398.95
2023-05-01T07:05:10.497Z,101400.84
2023-05-01T07:07:42.232Z,101400.06
2023-05-01T07:10:15.427Z,101408.17
2023-05-01T07:12:43.321Z,101407.02
2023-05-01T07:15:11.511Z,101406.08
2023-05-01T07:17:39.548Z,101402.22
2023-05-01T07:20:08.174Z,101402.35
2023-05-01T07:22:36.132Z,101402.97
2023-05-01T07:25:04.851Z,101402.48
2023-05-01T07:27:32.779Z,101402.02
2023-05-01T07:30:02.024Z,101402.77
2023-05-01T07:32:29.983Z,101400.72
2023-05-01T07:34:57.961Z,101399.44
2023-05-01T07:37:28.304Z,101393.52
2023-05-01T07:39:56.323Z,101397.67
2023-05-01T07:42:24.812Z,101402.91
2023-05-01T07:44:53.133Z,101398.16
2023-05-01T07:47:21.308Z,101405.00
2023-05-01T07:49:49.306Z,101403.04
2023-05-01T07:52:17.277Z,101402.58
2023-05-01T07:54:45.227Z,101399.84
2023-05-01T07:57:13.263Z,101402.05
2023-05-01T07:59:41.262Z,101411.54
2023-05-01T08:02:09.266Z,101408.50
2023-05-01T08:04:37.320Z,101408.34
2023-05-01T08:07:05.365Z,101408.76
2023-05-01T08:09:33.343Z,101421.16
2023-05-01T08:12:01.852Z,101410.95
2023-05-01T08:14:29.898Z,101412.72
2023-05-01T08:16:57.821Z,101416.70
2023-05-01T08:19:26.028Z,101419.23
2023-05-01T08:21:54.472Z,101415.17
2023-05-01T08:24:22.485Z,101416.38
2023-05-01T08:26:50.411Z,101423.25
2023-05-01T08:29:18.323Z,101420.08
2023-05-01T08:31:46.796Z,101417.39
2023-05-01T08:34:14.807Z,101423.61
2023-05-01T08:36:42.852Z,101422.00
2023-05-01T08:39:10.809Z,101428.58
2023-05-01T08:41:39.716Z,101424.88
2023-05-01T08:44:10.468Z,101426.48
2023-05-01T08:46:46.011Z,101427.63
2023-05-01T08:49:17.464Z,101421.25
2023-05-01T08:51:53.959Z,101425.02
2023-05-01T08:54:22.554Z,101429.66
2023-05-01T08:56:52.887Z,101434.13
2023-05-01T08:59:22.851Z,101430.44
2023-05-01T09:01:52.580Z,101434.79
2023-05-01T09:04:21.052Z,101430.63
2023-05-01T09:06:49.001Z,101436.39
2023-05-01T09:09:17.655Z,101437.18
2023-05-01T09:11:46.572Z,101440.35
2023-05-01T09:14:14.474Z,101438.38
2023-05-01T09:16:42.473Z,101440.58
2023-05-01T09:19:11.111Z,101438.48
2023-05-01T09:21:39.423Z,101438.71
2023-05-01T09:24:07.430Z,101437.11
2023-05-01T09:26:38.283Z,101439.30
2023-05-01T09:29:07.471Z,101439.11
2023-05-01T09:31:36.262Z,101441.10
2023-05-01T09:34:06.289Z,101442.21
2023-05-01T09:36:35.767Z,101441.52
2023-05-01T09:39:04.163Z,101447.09
2023-05-01T09:41:35.312Z,101444.21
2023-05-01T09:44:03.434Z,101444.99
2023-05-01T09:46:43.983Z,101454.12
2023-05-01T09:49:11.920Z,101450.03
2023-05-01T09:51:39.761Z,101438.84
2023-05-01T09:54:19.929Z,101445.19
2023-05-01T09:56:51.226Z,101444.50
2023-05-01T09:59:21.450Z,101444.11
2023-05-01T10:01:51.408Z,101446.10
2023-05-01T10:04:19.553Z,101447.31
2023-05-01T10:06:47.798Z,101450.09
2023-05-01T10:09:28.573Z,101441.10
2023-05-01T10:11:58.740Z,101439.70
2023-05-01T10:14:28.184Z,101447.12
2023-05-01T10:16:57.706Z,101445.45
2023-05-01T10:19:25.849Z,101438.48
2023-05-01T10:21:54.729Z,101438.48
2023-05-01T10:24:22.789Z,101440.64
2023-05-01T10:26:52.287Z,101436.09
2023-05-01T10:29:24.731Z,101446.01
2023-05-01T10:31:52.980Z,101440.91
2023-05-01T10:34:26.245Z,101440.31
2023-05-01T10:37:20.692Z,101437.57
2023-05-01T10:39:48.600Z,101434.66
2023-05-01T10:42:16.614Z,101434.43
2023-05-01T10:44:45.272Z,101427.37
2023-05-01T10:47:36.185Z,101427.37
2023-05-01T10:50:11.958Z,101439.59
2023-05-01T10:53:13.935Z,101435.34
2023-05-01T10:55:49.243Z,101439.59
2023-05-01T10:58:38.895Z,101436.85
2023-05-01T11:01:30.352Z,101426.95
2023-05-01T11:04:00.206Z,101428.80
2023-05-01T11:06:28.474Z,101429.10
2023-05-01T11:08:57.030Z,101420.04
2023-05-01T11:11:28.205Z,101421.61
2023-05-01T11:14:09.641Z,101423.54
2023-05-01T11:16:40.828Z,101418.11
2023-05-01T11:19:22.589Z,101427.37
2023-05-01T11:21:51.929Z,101420.50
2023-05-01T11:24:21.184Z,101417.06
2023-05-01T11:26:50.032Z,101421.22
2023-05-01T11:29:18.683Z,101421.91
2023-05-01T11:31:49.812Z,101413.11
2023-05-01T11:34:18.471Z,101414.65
2023-05-01T11:36:51.283Z,101409.58
2023-05-01T11:39:20.193Z,101416.22
2023-05-01T11:41:48.636Z,101416.87
2023-05-01T11:44:18.697Z,101416.38
2023-05-01T11:46:46.867Z,101412.13
2023-05-01T11:49:14.706Z,101409.38
2023-05-01T11:51:42.635Z,101402.58
2023-05-01T11:54:13.774Z,101409.09
2023-05-01T11:56:44.069Z,101406.73
2023-05-01T11:59:18.378Z,101408.83
2023-05-01T12:01:48.015Z,101411.21
2023-05-01T12:04:29.738Z,101407.52
2023-05-01T12:06:59.822Z,101409.91
2023-05-01T12:09:28.805Z,101412.26
2023-05-01T12:11:57.214Z,101403.85
2023-05-01T12:14:25.748Z,101407.52
2023-05-01T12:16:53.815Z,101402.05
2023-05-01T12:19:24.086Z,101402.58
2023-05-01T12:22:07.496Z,101402.13
2023-05-01T12:24:35.629Z,101401.14
2023-05-01T12:27:04.897Z,101402.61
2023-05-01T12:29:43.175Z,101405.36
2023-05-01T12:32:11.743Z,101399.73
2023-05-01T12:34:39.864Z,101398.07
2023-05-01T12:37:07.895Z,101395.55
2023-05-01T12:39:46.251Z,101403.73
2023-05-01T12:42:15.948Z,101409.09
2023-05-01T12:44:45.475Z,101405.30
2023-05-01T12:47:14.310Z,101394.90
2023-05-01T12:49:42.912Z,101407.35
2023-05-01T12:52:11.017Z,101408.99
2023-05-01T12:54:41.317Z,101403.59
2023-05-01T12:57:13.272Z,101408.56
2023-05-01T12:59:42.981Z,101408.86
2023-05-01T13:02:18.263Z,101416.41
2023-05-01T13:04:48.419Z,101412.45
2023-05-01T13:07:20.683Z,101414.09
2023-05-01T13:10:00.151Z,101417.10
2023-05-01T13:12:29.746Z,101425.66
2023-05-01T13:14:58.434Z,101423.41
2023-05-01T13:17:27.756Z,101425.70
2023-05-01T13:19:57.207Z,101425.34
2023-05-01T13:22:36.262Z,101433.13
2023-05-01T13:25:24.753Z,101431.32
2023-05-01T13:27:53.923Z,101434.20
2023-05-01T13:30:31.920Z,101431.78
2023-05-01T13:32:59.958Z,101432.63
2023-05-01T13:35:28.739Z,101431.62
2023-05-01T13:37:56.810Z,101429.43
2023-05-01T13:40:27.390Z,101431.95
2023-05-01T13:42:55.404Z,101427.50
2023-05-01T13:45:23.568Z,101423.05
2023-05-01T13:47:53.193Z,101415.73
2023-05-01T13:50:21.605Z,101426.22
2023-05-01T13:52:49.776Z,101420.30
2023-05-01T13:55:19.034Z,101408.47
2023-05-01T13:57:46.963Z,101419.55
2023-05-01T14:00:19.408Z,101414.25
2023-05-01T14:02:50.117Z,101416.25
2023-05-01T14:05:24.661Z,101407.26
2023-05-01T14:07:56.837Z,101405.55
2023-05-01T14:10:27.679Z,101402.61
2023-05-01T14:13:02.311Z,101403.33
2023-05-01T14:15:30.915Z,101400.65
2023-05-01T14:18:00.204Z,101395.78
2023-05-01T14:20:28.460Z,101395.38
2023-05-01T14:22:56.417Z,101397.05
2023-05-01T14:25:32.626Z,101400.65
2023-05-01T14:28:02.583Z,101400.23
2023-05-01T14:30:35.829Z,101399.80
2023-05-01T14:33:07.743Z,101396.53
2023-05-01T14:35:36.771Z,101394.80
2023-05-01T14:38:39.928Z,101392.84
2023-05-01T14:41:10.007Z,101393.72
2023-05-01T14:43:42.796Z,101396.23
2023-05-01T14:46:13.963Z,101394.05
2023-05-01T14:48:43.183Z,101397.09
2023-05-01T14:51:14.172Z,101384.89
2023-05-01T14:53:45.198Z,101390.77
2023-05-01T14:56:13.902Z,101390.64
2023-05-01T14:58:42.908Z,101384.17
2023-05-01T15:01:11.066Z,101385.31
2023-05-01T15:03:42.040Z,101384.30
2023-05-01T15:06:10.296Z,101393.23
2023-05-01T15:08:39.472Z,101391.43
2023-05-01T15:11:07.530Z,101391.69
2023-05-01T15:13:35.432Z,101393.78
2023-05-01T15:16:03.989Z,101387.93
2023-05-01T15:18:32.004Z,101418.57
2023-05-01T15:21:00.068Z,101434.59
2023-05-01T15:23:29.160Z,101441.46
2023-05-01T15:25:57.039Z,101437.80
2023-05-01T15:28:26.420Z,101438.13
2023-05-01T15:30:54.573Z,101438.71
2023-05-01T15:33:23.709Z,101431.52
2023-05-01T15:35:54.029Z,101436.23
2023-05-01T15:38:22.961Z,101442.73
2023-05-01T15:40:51.330Z,101443.32
2023-05-01T15:43:19.226Z,101446.46
2023-05-01T15:45:47.269Z,101434.01
2023-05-01T15:48:15.381Z,101438.84
2023-05-01T15:50:43.371Z,101447.28
2023-05-01T15:53:11.336Z,101440.15
2023-05-01T15:55:39.481Z,101417.72
2023-05-01T15:58:07.511Z,101418.18
2023-05-01T16:00:37.277Z,101425.83
2023-05-01T16:03:05.780Z,101426.45
2023-05-01T16:05:33.918Z,101424.00
2023-05-01T16:08:02.882Z,101427.34
2023-05-01T16:10:30.934Z,101442.31
2023-05-01T16:12:59.186Z,101430.31
2023-05-01T16:15:27.055Z,101440.55
2023-05-01T16:17:56.335Z,101442.12
2023-05-01T16:20:25.047Z,101437.34
2023-05-01T16:22:53.315Z,101429.85
2023-05-01T16:25:21.365Z,101442.12
2023-05-01T16:27:49.368Z,101431.13
2023-05-01T16:30:17.364Z,101445.77
2023-05-01T16:32:46.216Z,101443.72
2023-05-01T16:35:19.151Z,101448.95
2023-05-01T16:37:47.234Z,101446.07
2023-05-01T16:40:19.415Z,101459.12
2023-05-01T16:42:53.127Z,101455.33
2023-05-01T16:45:21.748Z,101458.17
2023-05-01T16:47:49.816Z,101464.22
2023-05-01T16:50:18.336Z,101468.66
2023-05-01T16:52:46.322Z,101476.81
2023-05-01T16:55:14.458Z,101483.32
2023-05-01T16:57:44.261Z,101467.91
2023-05-01T17:00:13.047Z,101483.19
2023-05-01T17:02:41.049Z,101479.72
2023-05-01T17:05:09.592Z,101496.66
2023-05-01T17:07:37.605Z,101500.32
2023-05-01T17:10:05.969Z,101495.58
2023-05-01T17:12:33.906Z,101497.31
2023-05-01T17:15:01.919Z,101496.23
2023-05-01T17:17:29.821Z,101497.97
2023-05-01T17:19:58.049Z,101500.55
2023-05-01T17:22:27.862Z,101507.05
2023-05-01T17:24:57.615Z,101511.51
2023-05-01T17:27:25.619Z,101501.34
2023-05-01T17:29:53.542Z,101494.96
2023-05-01T17:32:35.872Z,101503.27
2023-05-01T17:35:05.946Z,101502.94
2023-05-01T17:37:34.420Z,101519.02
2023-05-01T17:40:03.076Z,101515.23
2023-05-01T17:42:31.200Z,101518.24
2023-05-01T17:44:59.066Z,101522.39
2023-05-01T17:47:27.424Z,101516.05
2023-05-01T17:49:55.636Z,101517.45
2023-05-01T17:52:23.507Z,101522.06
2023-05-01T17:54:51.562Z,101527.20
2023-05-01T17:57:19.508Z,101531.32
2023-05-01T17:59:47.996Z,101535.15
2023-05-01T18:02:15.995Z,101537.70
2023-05-01T18:04:43.973Z,101534.49
2023-05-01T18:07:11.984Z,101538.65
2023-05-01T18:09:39.903Z,101540.38
2023-05-01T18:12:07.840Z,101542.44
2023-05-01T18:14:35.814Z,101556.76
2023-05-01T18:17:03.951Z,101555.52
2023-05-01T18:19:32.085Z,101566.18
2023-05-01T18:22:00.706Z,101573.18
2023-05-01T18:24:28.630Z,101576.52
2023-05-01T18:26:56.533Z,101594.53
2023-05-01T18:29:24.566Z,101595.48
2023-05-01T18:31:52.476Z,101601.53
2023-05-01T18:34:20.846Z,101605.81
2023-05-01T18:36:49.890Z,101610.88
2023-05-01T18:39:17.788Z,101620.76
2023-05-01T18:41:45.788Z,101618.70
2023-05-01T18:44:13.720Z,101624.58
2023-05-01T18:46:42.624Z,101628.87
2023-05-01T18:49:10.529Z,101629.98
2023-05-01T18:51:38.653Z,101637.27
2023-05-01T18:54:08.420Z,101642.66
2023-05-01T18:56:36.412Z,101642.47
2023-05-01T18:59:04.371Z,101641.16
2023-05-01T19:01:32.745Z,101636.52
2023-05-01T19:04:01.319Z,101645.70
2023-05-01T19:06:29.335Z,101646.66
2023-05-01T19:08:57.408Z,101652.70
2023-05-01T19:11:27.570Z,101656.86
2023-05-01T19:13:55.460Z,101658.10
2023-05-01T19:16:23.582Z,101665.09
2023-05-01T19:18:51.423Z,101664.64
2023-05-01T19:21:19.751Z,101652.38
2023-05-01T19:23:48.704Z,101646.66
2023-05-01T19:26:16.799Z,101646.98
2023-05-01T19:28:44.754Z,101641.26
2023-05-01T19:31:14.445Z,101635.54
2023-05-01T19:33:42.713Z,101642.53
2023-05-01T19:36:10.664Z,101647.80
2023-05-01T19:38:38.613Z,101642.08
2023-05-01T19:41:06.672Z,101644.13
2023-05-01T19:43:34.564Z,101646.98
2023-05-01T19:46:02.497Z,101639.66
2023-05-01T19:48:30.649Z,101638.41
2023-05-01T19:50:58.609Z,101640.48
2023-05-01T19:53:26.643Z,101639.66
2023-05-01T19:55:54.864Z,101641.75
2023-05-01T19:58:23.079Z,101641.09
2023-05-01T20:00:51.180Z,101631.38
2023-05-01T20:03:19.302Z,101644.73
2023-05-01T20:05:47.213Z,101656.17
2023-05-01T20:08:15.150Z,101644.85
2023-05-01T20:10:43.100Z,101647.83
2023-05-01T20:13:11.985Z,101663.10
2023-05-01T20:15:41.025Z,101664.05
2023-05-01T20:18:09.466Z,101666.57
2023-05-01T20:20:37.404Z,101669.09
2023-05-01T20:23:15.798Z,101664.64
2023-05-01T20:25:44.098Z,101671.63
2023-05-01T20:28:14.272Z,101667.62
2023-05-01T20:30:44.938Z,101670.98
2023-05-01T20:33:13.466Z,101666.54
2023-05-01T20:35:41.670Z,101668.56
2023-05-01T20:38:09.695Z,101671.12
2023-05-01T20:40:41.348Z,101680.14
2023-05-01T20:43:09.341Z,101678.87
2023-05-01T20:45:37.376Z,101671.24
2023-05-01T20:48:05.522Z,101682.69
2023-05-01T20:50:33.611Z,101682.69
2023-05-01T20:53:01.643Z,101682.69
2023-05-01T20:55:29.796Z,101687.13
2023-05-01T20:57:57.797Z,101696.03
2023-05-01T21:00:25.789Z,101695.57
2023-05-01T21:02:54.173Z,101700.84
2023-05-01T21:05:22.278Z,101701.49
2023-05-01T21:07:50.225Z,101705.61
2023-05-01T21:10:18.180Z,101712.48
2023-05-01T21:12:46.167Z,101714.08
2023-05-01T21:15:14.121Z,101716.96
2023-05-01T21:17:42.395Z,101715.55
2023-05-01T21:20:17.887Z,101713.00
2023-05-01T21:22:46.989Z,101720.33
2023-05-01T21:25:17.638Z,101724.77
2023-05-01T21:27:45.460Z,101725.10
2023-05-01T21:30:17.284Z,101716.99
2023-05-01T21:32:45.444Z,101727.20
2023-05-01T21:35:17.314Z,101721.93
2023-05-01T21:37:46.622Z,101731.31
2023-05-01T21:40:15.776Z,101739.59
2023-05-01T21:42:43.812Z,101754.66
2023-05-01T21:45:14.426Z,101761.34
2023-05-01T21:47:47.653Z,101752.24
2023-05-01T21:50:17.752Z,101763.69
2023-05-01T21:52:47.591Z,101766.11
2023-05-01T21:55:27.003Z,101770.09
2023-05-01T21:57:55.022Z,101761.86
2023-05-01T22:00:23.233Z,101773.30
2023-05-01T22:02:52.326Z,101775.20
2023-05-01T22:05:23.604Z,101781.61
2023-05-01T22:07:55.356Z,101778.27
2023-05-01T22:10:23.330Z,101780.23
2023-05-01T22:12:51.591Z,101779.29
2023-05-01T22:15:19.735Z,101774.48
2023-05-01T22:17:47.674Z,101768.10
2023-05-01T22:20:15.737Z,101771.27
2023-05-01T22:22:44.419Z,101770.95
2023-05-01T22:25:13.486Z,101769.80
2023-05-01T22:27:42.115Z,101763.10
2023-05-01T22:30:10.460Z,101768.82
2023-05-01T22:32:38.436Z,101759.60
2023-05-01T22:35:06.953Z,101755.94
2023-05-01T22:37:34.824Z,101754.01
2023-05-01T22:40:03.001Z,101752.41
2023-05-01T22:42:31.118Z,101737.43
2023-05-01T22:44:58.963Z,101735.83
2023-05-01T22:47:26.980Z,101727.85
2023-05-01T22:49:54.850Z,101732.46
2023-05-01T22:52:22.716Z,101726.05
2023-05-01T22:54:53.242Z,101727.78
2023-05-01T22:57:21.119Z,101729.84
2023-05-01T22:59:49.842Z,101730.34
2023-05-01T23:02:18.959Z,101726.31
2023-05-01T23:04:47.410Z,101738.54
2023-05-01T23:07:15.535Z,101739.81
2023-05-01T23:09:43.833Z,101743.94
2023-05-01T23:12:29.628Z,101754.92
2023-05-01T23:14:57.544Z,101749.98
2023-05-01T23:17:28.467Z,101762.91
2023-05-01T23:19:59.616Z,101759.57
2023-05-01T23:22:27.777Z,101768.82
2023-05-01T23:24:55.685Z,101759.47
2023-05-01T23:27:23.925Z,101756.10
2023-05-01T23:29:58.866Z,101757.24
2023-05-01T23:32:32.119Z,101759.34
2023-05-01T23:35:15.034Z,101757.93
2023-05-01T23:37:43.285Z,101767.32
2023-05-01T23:40:11.501Z,101764.90
2023-05-01T23:42:40.730Z,101761.70
2023-05-01T23:45:09.576Z,101765.39
2023-05-01T23:47:38.682Z,101768.89
2023-05-01T23:50:07.691Z,101767.61
2023-05-01T23:52:35.708Z,101766.37
2023-05-01T23:55:03.739Z,101763.85
2023-05-01T23:57:31.628Z,101763.85
2023-05-01T23:59:59.563Z,101763.49
